Time;durP1;ratioP1;P1;durP2;ratioP2;P2;SDS_P1;SDS_P2;PMS_P1;PMS_P2;Temp;Humidity;BMP_temperature;BMP_pressure;BME280_temperature;BME280_humidity;BME280_pressure;Samples;Min_cycle;Max_cycle;Signal;HPM_P1;HPM_P2
2023/08/10 00:01:55;;;;;;;;;;;;;;;27.55;41.18;94608.09;5025923;28;7282;-88
2023/08/10 00:04:27;;;;;;;;;;;;;;;27.54;41.39;94603.81;5013993;28;7278;-88
2023/08/10 00:06:58;;;;;;;;;;;;;;;27.55;41.13;94601.81;5010134;28;6852;-88
2023/08/10 00:09:24;;;;;;;;;;;;;;;27.51;41.82;94599.31;5006299;28;7260;-88
2023/08/10 00:11:55;;;;;;;;;;;;;;;27.50;41.55;94600.59;5013809;28;9182;-88
2023/08/10 00:14:21;;;;;;;;;;;;;;;27.52;40.86;94609.13;5025382;28;8989;-87
2023/08/10 00:16:47;;;;;;;;;;;;;;;27.52;41.10;94609.13;5028199;28;8988;-87
2023/08/10 00:19:15;;;;;;;;;;;;;;;27.49;41.52;94598.38;5016916;28;9001;-87
2023/08/10 00:21:42;;;;;;;;;;;;;;;27.51;41.37;94595.81;5030124;28;8968;-87
2023/08/10 00:24:08;;;;;;;;;;;;;;;27.54;41.59;94595.53;5029589;28;9062;-88
2023/08/10 00:26:36;;;;;;;;;;;;;;;27.49;41.62;94590.81;5022114;28;9073;-87
2023/08/10 00:29:06;;;;;;;;;;;;;;;27.52;40.91;94589.78;5012922;28;8755;-88
2023/08/10 00:31:32;;;;;;;;;;;;;;;27.52;41.49;94586.25;5015469;28;8713;-88
2023/08/10 00:34:00;;;;;;;;;;;;;;;27.52;41.41;94589.78;5025190;28;8775;-87
2023/08/10 00:36:27;;;;;;;;;;;;;;;27.54;41.28;94589.25;5016378;28;9066;-87
2023/08/10 00:38:56;;;;;;;;;;;;;;;27.54;40.77;94589.25;5011306;28;8663;-88
2023/08/10 00:41:22;;;;;;;;;;;;;;;27.49;40.76;94579.75;5018404;28;8760;-87
2023/08/10 00:43:49;;;;;;;;;;;;;;;27.48;41.43;94577.50;5021029;28;9059;-88
2023/08/10 00:46:15;;;;;;;;;;;;;;;27.52;41.45;94581.50;5011879;28;9019;-87
2023/08/10 00:48:43;;;;;;;;;;;;;;;27.52;40.79;94580.72;5007244;28;7066;-88
2023/08/10 00:51:10;;;;;;;;;;;;;;;27.53;41.38;94590.53;5005969;28;7246;-87
2023/08/10 00:53:37;;;;;;;;;;;;;;;27.52;40.77;94580.72;5007805;28;8746;-87
2023/08/10 00:56:04;;;;;;;;;;;;;;;27.50;40.91;94572.22;5021879;28;7275;-87
2023/08/10 00:58:32;;;;;;;;;;;;;;;27.50;40.78;94583.28;5010397;28;7045;-88
2023/08/10 01:01:00;;;;;;;;;;;;;;;27.52;41.50;94586.25;5009299;28;7208;-88
2023/08/10 01:03:27;;;;;;;;;;;;;;;27.47;41.59;94576.75;5023889;28;7321;-87
2023/08/10 01:06:12;;;;;;;;;;;;;;;27.52;40.94;94587.00;5011562;28;7173;-87
2023/08/10 01:09:09;;;;;;;;;;;;;;;27.49;41.07;94577.00;5002029;28;8750;-88
2023/08/10 01:11:47;;;;;;;;;;;;;;;27.54;41.27;94590.00;5020319;28;9017;-87
2023/08/10 01:14:18;;;;;;;;;;;;;;;27.53;41.14;94587.75;5024897;28;7078;-87
2023/08/10 01:16:48;;;;;;;;;;;;;;;27.50;41.41;94581.25;5025790;28;8625;-88
2023/08/10 01:19:20;;;;;;;;;;;;;;;27.53;41.09;94576.72;5020456;28;8776;-87
2023/08/10 01:22:18;;;;;;;;;;;;;;;27.52;41.59;94580.72;5020032;28;8724;-87
2023/08/10 01:25:05;;;;;;;;;;;;;;;27.45;40.97;94571.00;4949624;28;7956;-87
2023/08/10 01:27:34;;;;;;;;;;;;;;;27.46;41.27;94578.03;4951260;28;6869;-88
2023/08/10 01:30:03;;;;;;;;;;;;;;;27.52;41.39;94584.25;4934796;28;9232;-88
2023/08/10 01:32:32;;;;;;;;;;;;;;;27.49;41.58;94576.25;4932671;28;6869;-88
2023/08/10 01:35:05;;;;;;;;;;;;;;;27.54;41.16;94578.19;4947358;28;8663;-87
2023/08/10 01:37:36;;;;;;;;;;;;;;;27.53;41.54;94577.44;4936007;28;9123;-88
2023/08/10 01:40:13;;;;;;;;;;;;;;;27.51;41.00;94573.72;4949348;28;8901;-88
2023/08/10 01:42:41;;;;;;;;;;;;;;;27.49;41.25;94574.22;4950227;28;6871;-88
2023/08/10 01:45:08;;;;;;;;;;;;;;;27.51;41.53;94582.75;4952938;28;8716;-87
2023/08/10 01:47:53;;;;;;;;;;;;;;;27.50;41.40;94581.25;4951298;28;8645;-85
2023/08/10 01:50:24;;;;;;;;;;;;;;;27.49;41.71;94582.50;4946458;28;9316;-86
2023/08/10 01:52:57;;;;;;;;;;;;;;;27.48;41.14;94586.56;4933705;28;9151;-85
2023/08/10 01:55:24;;;;;;;;;;;;;;;27.46;41.12;94569.00;4935147;28;7498;-85
2023/08/10 01:57:51;;;;;;;;;;;;;;;27.45;41.51;94576.53;4933908;28;7506;-85
2023/08/10 02:00:17;;;;;;;;;;;;;;;27.47;41.05;94578.78;4933737;28;8708;-86
2023/08/10 02:02:45;;;;;;;;;;;;;;;27.49;41.16;94581.78;4997927;28;7197;-86
2023/08/10 02:05:17;;;;;;;;;;;;;;;27.49;41.31;94581.78;5006817;28;9219;-86
2023/08/10 02:07:48;;;;;;;;;;;;;;;27.49;41.49;94593.56;5017992;28;9739;-85
2023/08/10 02:10:16;;;;;;;;;;;;;;;27.43;41.60;94581.06;5020592;28;9046;-85
2023/08/10 02:12:42;;;;;;;;;;;;;;;27.44;41.54;94577.81;5022806;28;9349;-86
2023/08/10 02:15:12;;;;;;;;;;;;;;;27.43;41.46;94578.31;5010420;28;9078;-85
2023/08/10 02:17:41;;;;;;;;;;;;;;;27.45;41.61;94573.00;5009550;28;9050;-85
2023/08/10 02:20:13;;;;;;;;;;;;;;;27.44;41.52;94572.28;5009559;28;8732;-86
2023/08/10 02:22:54;;;;;;;;;;;;;;;27.43;41.53;94576.31;5008524;28;9004;-86
2023/08/10 02:25:22;;;;;;;;;;;;;;;27.47;41.21;94585.03;5007960;28;7354;-86
2023/08/10 02:27:50;;;;;;;;;;;;;;;27.47;41.52;94590.56;5024296;28;8794;-86
2023/08/10 02:30:18;;;;;;;;;;;;;;;27.41;41.25;94575.31;5008602;28;7275;-86
2023/08/10 02:32:44;;;;;;;;;;;;;;;27.41;41.44;94578.84;5009171;28;9025;-85
2023/08/10 02:35:11;;;;;;;;;;;;;;;27.40;41.35;94574.59;5015187;28;7293;-86
2023/08/10 02:37:38;;;;;;;;;;;;;;;27.43;41.13;94586.59;5011544;28;7413;-86
2023/08/10 02:40:07;;;;;;;;;;;;;;;27.43;41.39;94586.59;5030624;28;7025;-86
2023/08/10 02:42:33;;;;;;;;;;;;;;;27.44;41.41;94586.09;5029126;28;8994;-86
2023/08/10 02:44:59;;;;;;;;;;;;;;;27.35;41.69;94578.16;5030170;28;8819;-86
2023/08/10 02:47:26;;;;;;;;;;;;;;;27.41;41.58;94581.59;5028580;28;8970;-86
2023/08/10 02:49:57;;;;;;;;;;;;;;;27.43;41.20;94589.38;5020480;28;8660;-86
2023/08/10 02:52:23;;;;;;;;;;;;;;;27.43;41.35;94587.34;5014179;28;9099;-86
2023/08/10 02:54:49;;;;;;;;;;;;;;;27.39;41.68;94584.13;5013387;28;8742;-86
2023/08/10 02:57:15;;;;;;;;;;;;;;;27.41;41.76;94589.13;5018401;28;9168;-85
2023/08/10 02:59:41;;;;;;;;;;;;;;;27.45;41.42;94597.88;5013519;28;7250;-85
2023/08/10 03:02:07;;;;;;;;;;;;;;;27.37;41.77;94597.72;5024431;28;7228;-86
2023/08/10 03:04:35;;;;;;;;;;;;;;;27.41;41.45;94600.19;5021138;28;8732;-85
2023/08/10 03:07:01;;;;;;;;;;;;;;;27.37;41.25;94594.97;5015654;28;9313;-85
2023/08/10 03:09:37;;;;;;;;;;;;;;;27.40;41.93;94599.47;5042252;28;8756;-86
2023/08/10 03:12:05;;;;;;;;;;;;;;;27.44;41.42;94608.19;5029259;28;7384;-85
2023/08/10 03:14:31;;;;;;;;;;;;;;;27.42;41.97;94610.75;5022624;28;7234;-85
2023/08/10 03:17:04;;;;;;;;;;;;;;;27.39;41.49;94614.53;5026794;28;8578;-85
2023/08/10 03:19:33;;;;;;;;;;;;;;;27.40;41.61;94607.75;5017866;28;8218;-86
2023/08/10 03:21:59;;;;;;;;;;;;;;;27.38;41.04;94606.75;5031124;28;8780;-86
2023/08/10 03:24:35;;;;;;;;;;;;;;;27.40;41.85;94607.75;5029641;28;8652;-86
2023/08/10 03:27:06;;;;;;;;;;;;;;;27.36;41.51;94601.72;5028312;28;9179;-86
2023/08/10 03:29:39;;;;;;;;;;;;;;;27.34;41.83;94604.25;5014834;28;8717;-86
2023/08/10 03:32:06;;;;;;;;;;;;;;;27.38;41.95;94613.00;5019357;28;8609;-86
2023/08/10 03:34:34;;;;;;;;;;;;;;;27.38;41.78;94615.03;5017558;28;9309;-86
2023/08/10 03:37:04;;;;;;;;;;;;;;;27.37;41.39;94617.06;5030235;28;8750;-86
2023/08/10 03:39:30;;;;;;;;;;;;;;;27.33;41.57;94613.81;5019782;28;9117;-86
2023/08/10 03:41:56;;;;;;;;;;;;;;;27.33;41.44;94613.81;5029934;28;8069;-86
2023/08/10 03:44:22;;;;;;;;;;;;;;;27.34;41.49;94626.34;5012151;28;9374;-85
2023/08/10 03:46:53;;;;;;;;;;;;;;;27.37;42.02;94619.06;5013920;28;9175;-86
2023/08/10 03:49:22;;;;;;;;;;;;;;;27.37;41.54;94625.34;5021946;28;8724;-86
2023/08/10 03:51:54;;;;;;;;;;;;;;;27.36;41.30;94626.59;5028865;28;9151;-86
2023/08/10 03:54:27;;;;;;;;;;;;;;;27.31;42.04;94616.34;5026648;28;7233;-86
2023/08/10 03:56:53;;;;;;;;;;;;;;;27.33;41.59;94624.84;5028303;28;9028;-86
2023/08/10 03:59:22;;;;;;;;;;;;;;;27.29;41.88;94626.41;5019180;28;7270;-85
2023/08/10 04:01:51;;;;;;;;;;;;;;;27.25;41.72;94623.91;5006350;28;8713;-86
2023/08/10 04:04:19;;;;;;;;;;;;;;;27.29;41.63;94627.16;5009883;28;7261;-86
2023/08/10 04:06:45;;;;;;;;;;;;;;;27.31;41.99;94632.91;5025447;28;8772;-86
2023/08/10 04:09:11;;;;;;;;;;;;;;;27.29;41.61;94623.63;5021173;28;8640;-86
2023/08/10 04:11:38;;;;;;;;;;;;;;;27.33;41.33;94622.09;5009397;28;9377;-86
2023/08/10 04:14:04;;;;;;;;;;;;;;;27.34;41.85;94631.84;5034286;28;7271;-85
2023/08/10 04:16:32;;;;;;;;;;;;;;;27.29;41.82;94620.88;5008666;28;8746;-86
2023/08/10 04:18:57;;;;;;;;;;;;;;;27.32;41.97;94623.34;5032620;28;8720;-86
2023/08/10 04:21:26;;;;;;;;;;;;;;;27.31;41.56;94621.88;5014498;28;9036;-85
2023/08/10 04:23:52;;;;;;;;;;;;;;;27.28;41.69;94633.94;5010720;28;9018;-86
2023/08/10 04:26:18;;;;;;;;;;;;;;;27.26;41.63;94622.66;5025989;28;8939;-86
2023/08/10 04:28:45;;;;;;;;;;;;;;;27.26;41.70;94630.94;5025651;28;8727;-86
2023/08/10 04:31:13;;;;;;;;;;;;;;;27.27;41.72;94631.69;5038050;28;7039;-85
2023/08/10 04:33:42;;;;;;;;;;;;;;;27.28;41.44;94631.16;5026424;28;7004;-85
2023/08/10 04:36:10;;;;;;;;;;;;;;;27.26;41.48;94630.94;5035550;28;9797;-85
2023/08/10 04:38:36;;;;;;;;;;;;;;;27.27;42.18;94628.94;5005285;28;8793;-85
2023/08/10 04:41:03;;;;;;;;;;;;;;;27.32;41.56;94641.91;5025978;28;7055;-85
2023/08/10 04:43:29;;;;;;;;;;;;;;;27.31;41.64;94638.44;5025643;28;8780;-86
2023/08/10 04:45:55;;;;;;;;;;;;;;;27.32;41.29;94633.63;5010963;28;8758;-85
2023/08/10 04:48:21;;;;;;;;;;;;;;;27.29;41.93;94637.44;5018802;28;8589;-86
2023/08/10 04:50:53;;;;;;;;;;;;;;;27.25;41.57;94640.47;5010215;28;8813;-86
2023/08/10 04:53:22;;;;;;;;;;;;;;;27.26;41.67;94633.69;5006647;28;8891;-87
2023/08/10 04:55:50;;;;;;;;;;;;;;;27.31;42.12;94641.19;5023011;28;9055;-86
2023/08/10 04:58:19;;;;;;;;;;;;;;;27.26;41.46;94630.19;5024310;28;9093;-86
2023/08/10 05:00:52;;;;;;;;;;;;;;;27.31;41.36;94632.16;5011758;28;8716;-86
2023/08/10 05:03:21;;;;;;;;;;;;;;;27.24;40.96;94627.94;5010688;28;7271;-86
2023/08/10 05:05:49;;;;;;;;;;;;;;;27.24;41.37;94636.22;5025237;28;8757;-86
2023/08/10 05:08:16;;;;;;;;;;;;;;;27.28;41.89;94633.94;5006674;28;7260;-87
2023/08/10 05:10:46;;;;;;;;;;;;;;;27.33;41.13;94646.19;5008451;28;7284;-86
2023/08/10 05:13:12;;;;;;;;;;;;;;;27.26;41.75;94630.94;5017716;28;7278;-86
2023/08/10 05:15:42;;;;;;;;;;;;;;;27.33;41.63;94641.44;5009573;28;8993;-86
2023/08/10 05:18:09;;;;;;;;;;;;;;;27.25;41.78;94637.00;5020883;28;8722;-86
2023/08/10 05:20:37;;;;;;;;;;;;;;;27.31;41.15;94643.97;5011720;28;8612;-86
2023/08/10 05:23:03;;;;;;;;;;;;;;;27.31;41.71;94648.72;5007480;28;8823;-86
2023/08/10 05:25:29;;;;;;;;;;;;;;;27.28;41.10;94644.22;5008894;28;8730;-86
2023/08/10 05:27:55;;;;;;;;;;;;;;;27.28;41.88;94649.75;5012910;28;9040;-86
2023/08/10 05:30:21;;;;;;;;;;;;;;;27.25;41.78;94643.25;5009774;28;8408;-86
2023/08/10 05:32:50;;;;;;;;;;;;;;;27.28;41.70;94649.75;5016453;28;7273;-86
2023/08/10 05:35:16;;;;;;;;;;;;;;;27.25;41.68;94651.53;5011200;28;8693;-86
2023/08/10 05:37:45;;;;;;;;;;;;;;;27.29;41.32;94654.78;5007882;28;8731;-86
2023/08/10 05:40:11;;;;;;;;;;;;;;;27.29;41.27;94656.78;5011877;28;8630;-85
2023/08/10 05:42:39;;;;;;;;;;;;;;;27.30;41.62;94653.50;5008880;28;8609;-85
2023/08/10 05:45:08;;;;;;;;;;;;;;;27.22;41.26;94649.81;5023337;28;9002;-85
2023/08/10 05:47:35;;;;;;;;;;;;;;;27.25;41.49;94659.09;5004174;28;8762;-86
2023/08/10 05:50:04;;;;;;;;;;;;;;;27.18;41.62;94651.34;5019239;28;7340;-84
2023/08/10 05:52:33;;;;;;;;;;;;;;;27.27;41.62;94664.84;5024774;28;9177;-85
2023/08/10 05:55:03;;;;;;;;;;;;;;;27.27;41.60;94662.84;5007735;28;7028;-86
2023/08/10 05:57:29;;;;;;;;;;;;;;;27.25;41.33;94662.56;5026966;28;8947;-85
2023/08/10 05:59:55;;;;;;;;;;;;;;;27.20;41.75;94655.09;5011064;28;6884;-84
2023/08/10 06:02:22;;;;;;;;;;;;;;;27.26;41.62;94669.59;5012567;28;7402;-84
2023/08/10 06:04:49;;;;;;;;;;;;;;;27.25;41.72;94668.09;5028656;28;7724;-84
2023/08/10 06:07:16;;;;;;;;;;;;;;;27.25;42.00;94672.88;5026321;28;8736;-85
2023/08/10 06:09:42;;;;;;;;;;;;;;;27.23;41.78;94661.63;5012008;28;8715;-84
2023/08/10 06:12:10;;;;;;;;;;;;;;;27.28;41.78;94666.31;5034066;28;8428;-85
2023/08/10 06:14:37;;;;;;;;;;;;;;;27.28;41.53;94675.34;5014067;28;8620;-84
2023/08/10 06:17:09;;;;;;;;;;;;;;;27.25;41.63;94662.56;5020280;28;7446;-85
2023/08/10 06:19:37;;;;;;;;;;;;;;;27.22;41.36;94671.91;5007681;28;7037;-84
2023/08/10 06:22:04;;;;;;;;;;;;;;;27.22;41.43;94669.13;5024732;28;9277;-84
2023/08/10 06:24:30;;;;;;;;;;;;;;;27.29;41.60;94684.41;5008535;28;8166;-84
2023/08/10 06:26:57;;;;;;;;;;;;;;;27.26;41.34;94675.13;5020166;28;9050;-86
2023/08/10 06:29:30;;;;;;;;;;;;;;;27.28;42.11;94685.66;5007306;28;8745;-87
2023/08/10 06:31:58;;;;;;;;;;;;;;;27.26;42.21;94683.41;5006099;28;7246;-87
2023/08/10 06:34:24;;;;;;;;;;;;;;;27.25;41.94;94684.66;5000833;28;7285;-87
2023/08/10 06:36:52;;;;;;;;;;;;;;;27.29;41.97;94687.91;5027132;28;7254;-87
2023/08/10 06:39:18;;;;;;;;;;;;;;;27.32;41.40;94697.91;5006751;28;7028;-87
2023/08/10 06:41:45;;;;;;;;;;;;;;;27.31;42.46;94693.69;5013206;28;7210;-87
2023/08/10 06:44:15;;;;;;;;;;;;;;;27.25;41.30;94687.44;5009133;28;6996;-87
2023/08/10 06:46:44;;;;;;;;;;;;;;;27.33;42.00;94695.91;5005761;28;8730;-86
2023/08/10 06:49:10;;;;;;;;;;;;;;;27.33;41.87;94696.66;5005522;28;9028;-87
2023/08/10 06:51:36;;;;;;;;;;;;;;;27.33;41.55;94696.66;5007367;28;9053;-86
2023/08/10 06:54:06;;;;;;;;;;;;;;;27.34;41.82;94691.91;5009184;28;8988;-87
2023/08/10 06:56:33;;;;;;;;;;;;;;;27.35;41.63;94696.94;5013521;28;7052;-86
2023/08/10 06:58:59;;;;;;;;;;;;;;;27.33;41.75;94677.34;5010983;28;8636;-87
2023/08/10 07:01:25;;;;;;;;;;;;;;;27.36;41.49;94689.41;5004340;28;7271;-86
2023/08/10 07:03:56;;;;;;;;;;;;;;;27.33;41.78;94685.63;5005450;28;9004;-88
2023/08/10 07:06:28;;;;;;;;;;;;;;;27.38;41.50;94689.63;5008995;28;8956;-88
2023/08/10 07:08:59;;;;;;;;;;;;;;;27.38;41.83;94689.63;5007311;28;8914;-87
2023/08/10 07:11:27;;;;;;;;;;;;;;;27.35;42.04;94685.88;5005608;28;8732;-87
2023/08/10 07:14:04;;;;;;;;;;;;;;;27.31;41.65;94688.16;5006340;28;6987;-87
2023/08/10 07:16:37;;;;;;;;;;;;;;;27.37;42.47;94702.69;5022580;28;7013;-87
2023/08/10 07:19:03;;;;;;;;;;;;;;;27.37;41.57;94697.16;5012962;28;7533;-87
2023/08/10 07:21:29;;;;;;;;;;;;;;;27.33;41.26;94691.16;5024176;28;8793;-87
2023/08/10 07:23:57;;;;;;;;;;;;;;;27.35;45.01;94693.38;5008632;28;8689;-86
2023/08/10 07:26:24;;;;;;;;;;;;;;;27.39;42.52;94696.63;5005805;28;8696;-86
2023/08/10 07:28:52;;;;;;;;;;;;;;;27.41;41.96;94702.41;5029110;28;8753;-86
2023/08/10 07:31:20;;;;;;;;;;;;;;;27.40;42.88;94700.91;5029009;28;7249;-86
2023/08/10 07:33:46;;;;;;;;;;;;;;;27.41;43.77;94703.16;5011607;28;8843;-87
2023/08/10 07:36:12;;;;;;;;;;;;;;;27.39;45.40;94702.91;5010499;28;8754;-87
2023/08/10 07:38:38;;;;;;;;;;;;;;;27.48;44.74;94710.88;5023607;28;8715;-87
2023/08/10 07:41:04;;;;;;;;;;;;;;;27.50;43.83;94711.13;5023714;28;8814;-87
2023/08/10 07:43:30;;;;;;;;;;;;;;;27.49;43.29;94708.88;5012557;28;9086;-87
2023/08/10 07:45:56;;;;;;;;;;;;;;;27.47;43.37;94706.59;5007735;28;8733;-87
2023/08/10 07:48:22;;;;;;;;;;;;;;;27.44;44.39;94698.63;5009084;28;8767;-87
2023/08/10 07:50:49;;;;;;;;;;;;;;;27.50;44.52;94705.59;5026152;28;9042;-86
2023/08/10 07:53:15;;;;;;;;;;;;;;;27.44;44.07;94707.66;5007636;28;6885;-86
2023/08/10 07:55:45;;;;;;;;;;;;;;;27.47;44.91;94705.88;5008646;28;9013;-87
2023/08/10 07:58:15;;;;;;;;;;;;;;;27.48;44.66;94716.41;5011285;28;8715;-86
2023/08/10 08:00:44;;;;;;;;;;;;;;;27.48;44.09;94710.13;5025727;28;9016;-86
2023/08/10 08:03:12;;;;;;;;;;;;;;;27.45;43.91;94714.66;5022897;28;7269;-87
2023/08/10 08:05:40;;;;;;;;;;;;;;;27.49;44.54;94709.59;5012561;28;9051;-87
2023/08/10 08:08:08;;;;;;;;;;;;;;;27.49;43.60;94709.59;5023546;28;8742;-87
2023/08/10 08:10:35;;;;;;;;;;;;;;;27.49;43.86;94695.06;5028864;28;7166;-87
2023/08/10 08:13:06;;;;;;;;;;;;;;;27.52;43.46;94705.81;5030123;28;7270;-86
2023/08/10 08:15:36;;;;;;;;;;;;;;;27.49;43.87;94703.34;5029144;28;7593;-86
2023/08/10 08:18:41;;;;;;;;;;;;;;;27.53;43.52;94704.53;5029246;28;8472;-87
2023/08/10 08:21:09;;;;;;;;;;;;;;;27.54;43.58;94708.81;5021024;28;6859;-86
2023/08/10 08:23:35;;;;;;;;;;;;;;;27.54;43.77;94710.81;5021832;28;8622;-86
2023/08/10 08:26:03;;;;;;;;;;;;;;;27.51;43.41;94700.81;5026281;28;8740;-86
2023/08/10 08:28:33;;;;;;;;;;;;;;;27.47;43.30;94698.31;5011317;28;8754;-86
2023/08/10 08:31:01;;;;;;;;;;;;;;;27.51;43.55;94701.53;5031766;28;6984;-86
2023/08/10 08:33:28;;;;;;;;;;;;;;;27.49;43.34;94701.31;5013854;28;8769;-86
2023/08/10 08:35:55;;;;;;;;;;;;;;;27.55;43.54;94704.03;5030074;28;8705;-87
2023/08/10 08:38:22;;;;;;;;;;;;;;;27.52;43.08;94697.53;5010101;28;9183;-86
2023/08/10 08:40:48;;;;;;;;;;;;;;;27.55;43.05;94713.09;5025185;28;7149;-86
2023/08/10 08:43:15;;;;;;;;;;;;;;;27.56;43.21;94703.50;5008997;28;8709;-87
2023/08/10 08:45:42;;;;;;;;;;;;;;;27.55;42.93;94701.28;5027210;28;9003;-87
2023/08/10 08:48:09;;;;;;;;;;;;;;;27.58;43.47;94700.97;5027712;28;9086;-86
2023/08/10 08:50:41;;;;;;;;;;;;;;;27.58;43.12;94691.94;5026729;28;7233;-86
2023/08/10 08:53:16;;;;;;;;;;;;;;;27.60;42.57;94697.69;5025229;28;9060;-86
2023/08/10 08:55:46;;;;;;;;;;;;;;;27.60;42.80;94698.44;5019441;28;7269;-86
2023/08/10 08:58:16;;;;;;;;;;;;;;;27.59;42.98;94696.97;5010498;28;8764;-86
2023/08/10 09:00:52;;;;;;;;;;;;;;;27.59;42.87;94691.44;5029856;28;9511;-86
2023/08/10 09:03:20;;;;;;;;;;;;;;;27.56;42.79;94686.94;5035456;28;9389;-86
2023/08/10 09:05:50;;;;;;;;;;;;;;;27.58;42.91;94687.16;5011618;28;6986;-86
2023/08/10 09:08:19;;;;;;;;;;;;;;;27.60;42.80;94681.88;5028905;28;7224;-86
2023/08/10 09:10:47;;;;;;;;;;;;;;;27.61;42.67;94686.16;5009379;28;6903;-85
2023/08/10 09:13:21;;;;;;;;;;;;;;;27.62;42.72;94684.88;5009800;28;8757;-86
2023/08/10 09:16:05;;;;;;;;;;;;;;;27.63;43.00;94688.38;5024975;28;7036;-86
2023/08/10 09:18:40;;;;;;;;;;;;;;;27.55;42.63;94666.13;5004918;28;9415;-86
2023/08/10 09:21:19;;;;;;;;;;;;;;;27.62;42.66;94679.34;5005726;28;9014;-87
2023/08/10 09:23:52;;;;;;;;;;;;;;;27.63;42.60;94680.84;5009290;28;9804;-86
2023/08/10 09:26:21;;;;;;;;;;;;;;;27.64;42.72;94671.28;5012436;28;9295;-86
2023/08/10 09:28:49;;;;;;;;;;;;;;;27.60;42.87;94659.75;5027766;28;9029;-86
2023/08/10 09:31:23;;;;;;;;;;;;;;;27.61;42.29;94657.75;5025887;28;8827;-86
2023/08/10 09:33:59;;;;;;;;;;;;;;;27.65;42.87;94655.44;5034335;28;8756;-86
2023/08/10 09:36:29;;;;;;;;;;;;;;;27.67;42.61;94654.91;5010570;28;7101;-86
2023/08/10 09:38:57;;;;;;;;;;;;;;;27.68;42.68;94653.66;5020603;28;7366;-86
2023/08/10 09:41:23;;;;;;;;;;;;;;;27.63;42.80;94653.22;5013877;28;8802;-86
2023/08/10 09:43:52;;;;;;;;;;;;;;;27.64;42.60;94653.97;5012445;28;6872;-86
2023/08/10 09:46:18;;;;;;;;;;;;;;;27.68;42.30;94653.66;5021689;28;9310;-86
2023/08/10 09:48:49;;;;;;;;;;;;;;;27.68;42.30;94648.13;5034721;28;9357;-86
2023/08/10 09:51:20;;;;;;;;;;;;;;;27.67;42.54;94657.69;5035737;28;8721;-86
2023/08/10 09:53:47;;;;;;;;;;;;;;;27.70;41.91;94651.13;5009452;28;9016;-86
2023/08/10 09:56:14;;;;;;;;;;;;;;;27.66;42.71;94647.91;5011615;28;9002;-86
2023/08/10 09:58:41;;;;;;;;;;;;;;;27.71;42.36;94663.69;5017110;28;8822;-87
2023/08/10 10:01:09;;;;;;;;;;;;;;;27.72;42.34;94659.66;5010575;28;8936;-86
2023/08/10 10:03:35;;;;;;;;;;;;;;;27.65;41.93;94644.41;5026780;28;7211;-86
2023/08/10 10:06:02;;;;;;;;;;;;;;;27.66;42.05;94650.69;5008574;28;9065;-86
2023/08/10 10:08:31;;;;;;;;;;;;;;;27.67;42.42;94652.91;5009582;28;8723;-86
2023/08/10 10:11:06;;;;;;;;;;;;;;;27.67;42.28;94657.69;5019151;28;9124;-87
2023/08/10 10:13:37;;;;;;;;;;;;;;;27.66;42.80;94659.72;5030203;28;9113;-87
2023/08/10 10:16:08;;;;;;;;;;;;;;;27.65;42.46;94652.69;5006038;28;9029;-86
2023/08/10 10:18:35;;;;;;;;;;;;;;;27.65;42.38;94644.41;5023912;28;8717;-86
2023/08/10 10:21:02;;;;;;;;;;;;;;;27.63;42.18;94635.88;5009413;28;8817;-86
2023/08/10 10:23:30;;;;;;;;;;;;;;;27.62;42.07;94640.66;5024227;28;8752;-86
2023/08/10 10:25:56;;;;;;;;;;;;;;;27.67;42.51;94638.34;5004307;28;8991;-86
2023/08/10 10:28:22;;;;;;;;;;;;;;;27.61;41.89;94622.59;5009893;28;8750;-86
2023/08/10 10:31:05;;;;;;;;;;;;;;;27.65;41.64;94625.06;5018429;28;7119;-86
2023/08/10 10:33:34;;;;;;;;;;;;;;;27.67;42.29;94630.06;5006746;28;6991;-86
2023/08/10 10:36:12;;;;;;;;;;;;;;;27.67;42.32;94625.28;5022748;28;6993;-86
2023/08/10 10:38:50;;;;;;;;;;;;;;;27.70;41.81;94615.22;5009388;28;7537;-86
2023/08/10 10:41:27;;;;;;;;;;;;;;;27.69;42.12;94606.16;5010197;28;7331;-86
2023/08/10 10:44:00;;;;;;;;;;;;;;;27.70;42.05;94606.91;5021433;28;8699;-86
2023/08/10 10:46:34;;;;;;;;;;;;;;;27.70;41.88;94595.84;5017680;28;8720;-86
2023/08/10 10:49:05;;;;;;;;;;;;;;;27.67;42.04;94591.38;5016551;28;9035;-87
2023/08/10 10:51:32;;;;;;;;;;;;;;;27.68;41.84;94587.34;5009388;28;8712;-86
2023/08/10 10:53:58;;;;;;;;;;;;;;;27.67;41.51;94591.38;5020353;28;7002;-86
2023/08/10 10:56:27;;;;;;;;;;;;;;;27.72;42.01;94598.84;5030073;28;7243;-86
2023/08/10 10:58:53;;;;;;;;;;;;;;;27.75;41.88;94597.81;5012412;28;9363;-87
2023/08/10 11:01:21;;;;;;;;;;;;;;;27.72;41.79;94585.03;5032076;28;7228;-86
2023/08/10 11:03:56;;;;;;;;;;;;;;;27.73;41.57;94592.78;5014330;28;9260;-86
2023/08/10 11:06:27;;;;;;;;;;;;;;;27.73;42.13;94598.31;5027168;28;9032;-86
2023/08/10 11:08:59;;;;;;;;;;;;;;;27.70;41.72;94587.56;5027785;28;9127;-84
2023/08/10 11:11:31;;;;;;;;;;;;;;;27.75;41.73;94593.03;5022628;28;9042;-84
2023/08/10 11:13:59;;;;;;;;;;;;;;;27.73;42.08;94590.03;5009853;28;7539;-84
2023/08/10 11:16:25;;;;;;;;;;;;;;;27.71;41.86;94581.50;5032149;28;9090;-84
2023/08/10 11:18:58;;;;;;;;;;;;;;;27.71;42.02;94583.56;5024083;28;6857;-84
2023/08/10 11:21:25;;;;;;;;;;;;;;;27.75;41.58;94593.03;5018710;28;8885;-84
2023/08/10 11:23:56;;;;;;;;;;;;;;;27.79;41.70;94592.75;5023152;28;8689;-85
2023/08/10 11:26:22;;;;;;;;;;;;;;;27.78;41.52;94586.47;5008901;28;9009;-85
2023/08/10 11:28:48;;;;;;;;;;;;;;;27.83;41.28;94582.13;5040064;28;8880;-84
2023/08/10 11:31:14;;;;;;;;;;;;;;;27.76;41.95;94577.19;5009104;28;7032;-85
2023/08/10 11:33:40;;;;;;;;;;;;;;;27.82;41.82;94586.19;5035810;28;9021;-85
2023/08/10 11:36:06;;;;;;;;;;;;;;;27.84;41.09;94584.38;5041841;28;9120;-84
2023/08/10 11:38:46;;;;;;;;;;;;;;;27.81;41.10;94579.91;5029094;28;7277;-85
2023/08/10 11:41:15;;;;;;;;;;;;;;;27.88;41.15;94578.56;5024414;28;8739;-85
2023/08/10 11:43:46;;;;;;;;;;;;;;;27.88;41.19;94595.91;5028724;28;8614;-85
2023/08/10 11:46:19;;;;;;;;;;;;;;;27.90;41.27;94600.91;5019515;28;8747;-85
2023/08/10 11:48:48;;;;;;;;;;;;;;;27.88;41.15;94601.44;5012436;28;7276;-84
2023/08/10 11:51:17;;;;;;;;;;;;;;;27.85;40.97;94599.69;5014856;28;8783;-84
2023/08/10 11:53:47;;;;;;;;;;;;;;;27.92;41.78;94601.13;5014305;28;8746;-84
2023/08/10 11:56:13;;;;;;;;;;;;;;;27.93;41.33;94600.59;5015135;28;7268;-85
2023/08/10 11:58:40;;;;;;;;;;;;;;;27.90;41.39;94590.59;5034384;28;9024;-85
2023/08/10 12:01:09;;;;;;;;;;;;;;;27.92;41.67;94595.59;5029165;28;9011;-85
2023/08/10 12:03:35;;;;;;;;;;;;;;;27.92;41.58;94596.34;5012872;28;6999;-84
2023/08/10 12:06:06;;;;;;;;;;;;;;;27.98;41.47;94599.81;5013305;28;9386;-85
2023/08/10 12:08:40;;;;;;;;;;;;;;;27.99;41.46;94593.00;5017776;28;8594;-85
2023/08/10 12:11:11;;;;;;;;;;;;;;;28.01;41.11;94592.50;5028437;28;8737;-85
2023/08/10 12:13:49;;;;;;;;;;;;;;;28.01;41.50;94586.97;5015749;28;7279;-85
2023/08/10 12:16:17;;;;;;;;;;;;;;;28.07;41.68;94579.34;5025180;28;8807;-84
2023/08/10 12:18:44;;;;;;;;;;;;;;;28.04;41.12;94585.91;5028484;28;9036;-87
2023/08/10 12:21:11;;;;;;;;;;;;;;;28.04;41.23;94583.91;5034118;28;8759;-87
2023/08/10 12:23:37;;;;;;;;;;;;;;;28.08;41.40;94586.38;5017126;28;8700;-87
2023/08/10 12:26:03;;;;;;;;;;;;;;;28.15;40.99;94596.84;5020360;28;8723;-86
2023/08/10 12:28:30;;;;;;;;;;;;;;;28.15;41.28;94588.53;5032909;28;9068;-86
2023/08/10 12:31:06;;;;;;;;;;;;;;;28.15;41.04;94594.06;5011638;28;9013;-87
2023/08/10 12:33:38;;;;;;;;;;;;;;;28.16;40.98;94590.03;5011542;28;7217;-86
2023/08/10 12:36:07;;;;;;;;;;;;;;;28.16;41.14;94587.28;5028135;28;9066;-86
2023/08/10 12:38:33;;;;;;;;;;;;;;;28.15;41.18;94580.25;5007882;28;8825;-86
2023/08/10 12:41:04;;;;;;;;;;;;;;;28.17;41.54;94583.97;5015489;28;8739;-86
2023/08/10 12:43:34;;;;;;;;;;;;;;;28.13;41.25;94577.25;5011922;28;7242;-87
2023/08/10 12:46:00;;;;;;;;;;;;;;;28.16;41.04;94576.97;5018674;28;7042;-87
2023/08/10 12:48:27;;;;;;;;;;;;;;;28.22;41.15;94577.63;5023968;28;8970;-86
2023/08/10 12:50:56;;;;;;;;;;;;;;;28.22;41.16;94579.66;5010953;28;8709;-87
2023/08/10 12:53:25;;;;;;;;;;;;;;;28.23;41.12;94570.81;5027054;28;9295;-87
2023/08/10 12:55:52;;;;;;;;;;;;;;;28.19;41.37;94553.03;5013651;28;9016;-86
2023/08/10 12:58:18;;;;;;;;;;;;;;;28.27;41.43;94565.00;5010850;28;9100;-87
2023/08/10 13:00:45;;;;;;;;;;;;;;;28.28;41.63;94560.94;5007307;28;9009;-86
2023/08/10 13:03:12;;;;;;;;;;;;;;;28.25;41.45;94553.72;5024158;28;7006;-87
2023/08/10 13:05:39;;;;;;;;;;;;;;;28.29;41.45;94570.75;5027108;28;9015;-87
2023/08/10 13:08:05;;;;;;;;;;;;;;;28.23;41.08;94559.03;5010536;28;9019;-86